sensor_id;sensor_type;location;lat;lon;timestamp;P1;durP1;ratioP1;P2;durP2;ratioP2
55915;SDS011;41826;53.246;-6.670;2023-04-24T00:01:21;13.23;;;6.40;;
55915;SDS011;41826;53.246;-6.670;2023-04-24T00:03:46;10.05;;;5.90;;
55915;SDS011;41826;53.246;-6.670;2023-04-24T00:06:12;11.63;;;7.03;;
55915;SDS011;41826;53.246;-6.670;2023-04-24T00:08:37;12.73;;;6.30;;
55915;SDS011;41826;53.246;-6.670;2023-04-24T00:11:03;14.13;;;6.47;;
55915;SDS011;41826;53.246;-6.670;2023-04-24T00:13:28;11.55;;;5.70;;
55915;SDS011;41826;53.246;-6.670;2023-04-24T00:15:54;11.73;;;6.38;;
55915;SDS011;41826;53.246;-6.670;2023-04-24T00:18:20;7.57;;;4.28;;
55915;SDS011;41826;53.246;-6.670;2023-04-24T00:20:46;4.47;;;3.67;;
55915;SDS011;41826;53.246;-6.670;2023-04-24T00:23:11;10.50;;;5.05;;
55915;SDS011;41826;53.246;-6.670;2023-04-24T00:25:37;5.95;;;3.55;;
55915;SDS011;41826;53.246;-6.670;2023-04-24T00:28:03;4.25;;;3.15;;
55915;SDS011;41826;53.246;-6.670;2023-04-24T00:30:30;5.50;;;3.60;;
55915;SDS011;41826;53.246;-6.670;2023-04-24T00:32:55;6.53;;;5.13;;
55915;SDS011;41826;53.246;-6.670;2023-04-24T00:35:21;6.40;;;4.72;;
55915;SDS011;41826;53.246;-6.670;2023-04-24T00:37:46;7.40;;;3.40;;
55915;SDS011;41826;53.246;-6.670;2023-04-24T00:40:12;4.50;;;3.20;;
55915;SDS011;41826;53.246;-6.670;2023-04-24T00:42:37;9.52;;;5.82;;
55915;SDS011;41826;53.246;-6.670;2023-04-24T00:45:04;9.80;;;6.38;;
55915;SDS011;41826;53.246;-6.670;2023-04-24T00:47:30;12.15;;;6.45;;
55915;SDS011;41826;53.246;-6.670;2023-04-24T00:49:57;8.35;;;6.25;;
55915;SDS011;41826;53.246;-6.670;2023-04-24T00:52:23;9.85;;;5.88;;
55915;SDS011;41826;53.246;-6.670;2023-04-24T00:54:49;14.85;;;6.38;;
55915;SDS011;41826;53.246;-6.670;2023-04-24T00:57:15;10.80;;;6.65;;
55915;SDS011;41826;53.246;-6.670;2023-04-24T00:59:41;16.33;;;5.50;;
55915;SDS011;41826;53.246;-6.670;2023-04-24T01:02:07;12.07;;;5.95;;
55915;SDS011;41826;53.246;-6.670;2023-04-24T01:04:34;12.50;;;5.70;;
55915;SDS011;41826;53.246;-6.670;2023-04-24T01:07:00;11.07;;;5.35;;
55915;SDS011;41826;53.246;-6.670;2023-04-24T01:09:26;4.47;;;3.45;;
55915;SDS011;41826;53.246;-6.670;2023-04-24T01:11:51;12.73;;;6.43;;
55915;SDS011;41826;53.246;-6.670;2023-04-24T01:14:17;7.70;;;5.18;;
55915;SDS011;41826;53.246;-6.670;2023-04-24T01:16:43;13.23;;;6.05;;
55915;SDS011;41826;53.246;-6.670;2023-04-24T01:19:08;7.35;;;4.88;;
55915;SDS011;41826;53.246;-6.670;2023-04-24T01:21:36;6.38;;;3.80;;
55915;SDS011;41826;53.246;-6.670;2023-04-24T01:24:03;5.43;;;3.38;;
55915;SDS011;41826;53.246;-6.670;2023-04-24T01:26:30;5.10;;;4.03;;
55915;SDS011;41826;53.246;-6.670;2023-04-24T01:28:56;5.05;;;3.05;;
55915;SDS011;41826;53.246;-6.670;2023-04-24T01:31:22;7.32;;;5.38;;
55915;SDS011;41826;53.246;-6.670;2023-04-24T01:33:47;5.50;;;3.17;;
55915;SDS011;41826;53.246;-6.670;2023-04-24T01:36:13;3.08;;;2.67;;
55915;SDS011;41826;53.246;-6.670;2023-04-24T01:38:40;3.38;;;3.08;;
55915;SDS011;41826;53.246;-6.670;2023-04-24T01:41:05;3.83;;;2.58;;
55915;SDS011;41826;53.246;-6.670;2023-04-24T01:43:31;5.75;;;3.08;;
55915;SDS011;41826;53.246;-6.670;2023-04-24T01:45:57;3.55;;;2.70;;
55915;SDS011;41826;53.246;-6.670;2023-04-24T01:48:22;4.95;;;3.60;;
55915;SDS011;41826;53.246;-6.670;2023-04-24T01:50:48;4.00;;;3.30;;
55915;SDS011;41826;53.246;-6.670;2023-04-24T01:53:13;3.13;;;2.60;;
55915;SDS011;41826;53.246;-6.670;2023-04-24T01:55:38;3.92;;;2.60;;
55915;SDS011;41826;53.246;-6.670;2023-04-24T01:58:04;5.38;;;3.65;;
55915;SDS011;41826;53.246;-6.670;2023-04-24T02:00:30;11.85;;;5.68;;
55915;SDS011;41826;53.246;-6.670;2023-04-24T02:02:55;7.80;;;5.22;;
55915;SDS011;41826;53.246;-6.670;2023-04-24T02:05:20;7.47;;;4.40;;
55915;SDS011;41826;53.246;-6.670;2023-04-24T02:07:46;6.30;;;2.95;;
55915;SDS011;41826;53.246;-6.670;2023-04-24T02:10:11;4.70;;;2.83;;
55915;SDS011;41826;53.246;-6.670;2023-04-24T02:12:37;2.92;;;2.72;;
55915;SDS011;41826;53.246;-6.670;2023-04-24T02:15:02;3.30;;;2.97;;
55915;SDS011;41826;53.246;-6.670;2023-04-24T02:17:28;3.33;;;2.60;;
55915;SDS011;41826;53.246;-6.670;2023-04-24T02:19:53;3.90;;;3.22;;
55915;SDS011;41826;53.246;-6.670;2023-04-24T02:22:19;5.43;;;3.65;;
55915;SDS011;41826;53.246;-6.670;2023-04-24T02:24:44;4.00;;;2.72;;
55915;SDS011;41826;53.246;-6.670;2023-04-24T02:27:11;3.60;;;3.22;;
55915;SDS011;41826;53.246;-6.670;2023-04-24T02:29:37;2.88;;;2.55;;
55915;SDS011;41826;53.246;-6.670;2023-04-24T02:32:02;3.20;;;2.50;;
55915;SDS011;41826;53.246;-6.670;2023-04-24T02:34:28;4.35;;;2.50;;
55915;SDS011;41826;53.246;-6.670;2023-04-24T02:36:53;3.08;;;2.50;;
55915;SDS011;41826;53.246;-6.670;2023-04-24T02:39:19;8.35;;;4.30;;
55915;SDS011;41826;53.246;-6.670;2023-04-24T02:41:45;4.95;;;3.00;;
55915;SDS011;41826;53.246;-6.670;2023-04-24T02:44:10;3.60;;;2.20;;
55915;SDS011;41826;53.246;-6.670;2023-04-24T02:46:36;3.20;;;2.45;;
55915;SDS011;41826;53.246;-6.670;2023-04-24T02:49:02;2.95;;;2.67;;
55915;SDS011;41826;53.246;-6.670;2023-04-24T02:51:27;3.05;;;2.50;;
55915;SDS011;41826;53.246;-6.670;2023-04-24T02:53:53;2.88;;;2.20;;
55915;SDS011;41826;53.246;-6.670;2023-04-24T02:56:18;4.07;;;2.58;;
55915;SDS011;41826;53.246;-6.670;2023-04-24T02:58:44;5.00;;;2.72;;
55915;SDS011;41826;53.246;-6.670;2023-04-24T03:01:10;6.28;;;3.20;;
55915;SDS011;41826;53.246;-6.670;2023-04-24T03:03:36;5.03;;;2.90;;
55915;SDS011;41826;53.246;-6.670;2023-04-24T03:06:01;3.88;;;2.67;;
55915;SDS011;41826;53.246;-6.670;2023-04-24T03:08:27;2.83;;;2.53;;
55915;SDS011;41826;53.246;-6.670;2023-04-24T03:10:52;5.25;;;3.35;;
55915;SDS011;41826;53.246;-6.670;2023-04-24T03:13:18;8.15;;;4.47;;
55915;SDS011;41826;53.246;-6.670;2023-04-24T03:15:44;5.07;;;2.80;;
55915;SDS011;41826;53.246;-6.670;2023-04-24T03:18:10;3.25;;;2.55;;
55915;SDS011;41826;53.246;-6.670;2023-04-24T03:20:35;5.35;;;2.65;;
55915;SDS011;41826;53.246;-6.670;2023-04-24T03:23:03;2.83;;;2.28;;
55915;SDS011;41826;53.246;-6.670;2023-04-24T03:25:28;5.65;;;2.55;;
55915;SDS011;41826;53.246;-6.670;2023-04-24T03:27:54;4.15;;;2.60;;
55915;SDS011;41826;53.246;-6.670;2023-04-24T03:30:19;4.80;;;2.70;;
55915;SDS011;41826;53.246;-6.670;2023-04-24T03:32:45;12.50;;;4.40;;
55915;SDS011;41826;53.246;-6.670;2023-04-24T03:35:11;2.38;;;2.17;;
55915;SDS011;41826;53.246;-6.670;2023-04-24T03:37:36;4.20;;;2.55;;
55915;SDS011;41826;53.246;-6.670;2023-04-24T03:40:02;3.70;;;2.28;;
55915;SDS011;41826;53.246;-6.670;2023-04-24T03:42:29;4.35;;;2.53;;
55915;SDS011;41826;53.246;-6.670;2023-04-24T03:44:54;2.65;;;2.00;;
55915;SDS011;41826;53.246;-6.670;2023-04-24T03:47:19;3.22;;;2.33;;
55915;SDS011;41826;53.246;-6.670;2023-04-24T03:49:45;2.78;;;2.35;;
55915;SDS011;41826;53.246;-6.670;2023-04-24T03:52:10;2.78;;;2.53;;
55915;SDS011;41826;53.246;-6.670;2023-04-24T03:54:36;2.63;;;2.13;;
55915;SDS011;41826;53.246;-6.670;2023-04-24T03:57:01;3.25;;;2.28;;
55915;SDS011;41826;53.246;-6.670;2023-04-24T03:59:27;4.05;;;2.22;;
55915;SDS011;41826;53.246;-6.670;2023-04-24T04:01:52;3.20;;;2.58;;
55915;SDS011;41826;53.246;-6.670;2023-04-24T04:04:17;2.90;;;2.25;;
55915;SDS011;41826;53.246;-6.670;2023-04-24T04:06:43;3.72;;;2.65;;
55915;SDS011;41826;53.246;-6.670;2023-04-24T04:09:09;2.25;;;2.00;;
55915;SDS011;41826;53.246;-6.670;2023-04-24T04:11:35;3.13;;;1.73;;
55915;SDS011;41826;53.246;-6.670;2023-04-24T04:14:01;3.63;;;2.05;;
55915;SDS011;41826;53.246;-6.670;2023-04-24T04:16:26;2.95;;;2.45;;
55915;SDS011;41826;53.246;-6.670;2023-04-24T04:18:51;3.90;;;2.30;;
55915;SDS011;41826;53.246;-6.670;2023-04-24T04:21:17;2.42;;;2.10;;
55915;SDS011;41826;53.246;-6.670;2023-04-24T04:23:42;2.47;;;1.83;;
55915;SDS011;41826;53.246;-6.670;2023-04-24T04:26:07;5.65;;;3.28;;
55915;SDS011;41826;53.246;-6.670;2023-04-24T04:28:33;3.38;;;2.38;;
55915;SDS011;41826;53.246;-6.670;2023-04-24T04:30:59;3.00;;;2.70;;
55915;SDS011;41826;53.246;-6.670;2023-04-24T04:33:25;3.60;;;2.28;;
55915;SDS011;41826;53.246;-6.670;2023-04-24T04:35:51;2.15;;;1.88;;
55915;SDS011;41826;53.246;-6.670;2023-04-24T04:38:18;4.50;;;2.22;;
55915;SDS011;41826;53.246;-6.670;2023-04-24T04:40:44;3.35;;;2.72;;
55915;SDS011;41826;53.246;-6.670;2023-04-24T04:43:10;3.00;;;1.60;;
55915;SDS011;41826;53.246;-6.670;2023-04-24T04:45:39;2.55;;;2.03;;
55915;SDS011;41826;53.246;-6.670;2023-04-24T04:48:06;5.63;;;2.40;;
55915;SDS011;41826;53.246;-6.670;2023-04-24T04:50:33;3.00;;;2.30;;
55915;SDS011;41826;53.246;-6.670;2023-04-24T04:52:58;2.30;;;2.10;;
55915;SDS011;41826;53.246;-6.670;2023-04-24T04:55:24;3.40;;;2.72;;
55915;SDS011;41826;53.246;-6.670;2023-04-24T04:57:49;2.75;;;2.03;;
55915;SDS011;41826;53.246;-6.670;2023-04-24T05:00:15;2.85;;;1.90;;
55915;SDS011;41826;53.246;-6.670;2023-04-24T05:02:41;4.25;;;2.13;;
55915;SDS011;41826;53.246;-6.670;2023-04-24T05:05:06;3.67;;;1.95;;
55915;SDS011;41826;53.246;-6.670;2023-04-24T05:07:32;2.38;;;2.00;;
55915;SDS011;41826;53.246;-6.670;2023-04-24T05:09:58;5.97;;;3.83;;
55915;SDS011;41826;53.246;-6.670;2023-04-24T05:12:24;2.03;;;1.92;;
55915;SDS011;41826;53.246;-6.670;2023-04-24T05:14:49;4.28;;;2.50;;
55915;SDS011;41826;53.246;-6.670;2023-04-24T05:17:14;3.35;;;2.40;;
55915;SDS011;41826;53.246;-6.670;2023-04-24T05:19:40;2.10;;;1.92;;
55915;SDS011;41826;53.246;-6.670;2023-04-24T05:22:05;2.25;;;2.05;;
55915;SDS011;41826;53.246;-6.670;2023-04-24T05:24:34;3.67;;;1.55;;
55915;SDS011;41826;53.246;-6.670;2023-04-24T05:27:00;2.72;;;2.15;;
55915;SDS011;41826;53.246;-6.670;2023-04-24T05:29:27;7.85;;;3.15;;
55915;SDS011;41826;53.246;-6.670;2023-04-24T05:31:53;9.20;;;3.10;;
55915;SDS011;41826;53.246;-6.670;2023-04-24T05:34:18;4.00;;;1.52;;
55915;SDS011;41826;53.246;-6.670;2023-04-24T05:36:43;5.43;;;2.88;;
55915;SDS011;41826;53.246;-6.670;2023-04-24T05:39:09;2.55;;;1.70;;
55915;SDS011;41826;53.246;-6.670;2023-04-24T05:41:35;1.75;;;1.63;;
55915;SDS011;41826;53.246;-6.670;2023-04-24T05:44:00;2.58;;;1.50;;
55915;SDS011;41826;53.246;-6.670;2023-04-24T05:46:25;2.58;;;1.70;;
55915;SDS011;41826;53.246;-6.670;2023-04-24T05:48:51;7.70;;;4.43;;
55915;SDS011;41826;53.246;-6.670;2023-04-24T05:51:16;3.78;;;1.83;;
55915;SDS011;41826;53.246;-6.670;2023-04-24T05:53:43;2.47;;;1.48;;
55915;SDS011;41826;53.246;-6.670;2023-04-24T05:56:11;1.45;;;1.35;;
55915;SDS011;41826;53.246;-6.670;2023-04-24T05:58:37;4.90;;;2.78;;
55915;SDS011;41826;53.246;-6.670;2023-04-24T06:01:02;5.50;;;3.90;;
55915;SDS011;41826;53.246;-6.670;2023-04-24T06:03:28;13.00;;;4.43;;
55915;SDS011;41826;53.246;-6.670;2023-04-24T06:05:55;6.38;;;4.53;;
55915;SDS011;41826;53.246;-6.670;2023-04-24T06:08:20;15.13;;;5.35;;
55915;SDS011;41826;53.246;-6.670;2023-04-24T06:10:46;7.38;;;4.22;;
55915;SDS011;41826;53.246;-6.670;2023-04-24T06:13:11;9.80;;;4.95;;
55915;SDS011;41826;53.246;-6.670;2023-04-24T06:15:37;5.25;;;4.25;;
55915;SDS011;41826;53.246;-6.670;2023-04-24T06:18:02;6.78;;;3.95;;
55915;SDS011;41826;53.246;-6.670;2023-04-24T06:20:28;10.50;;;4.85;;
55915;SDS011;41826;53.246;-6.670;2023-04-24T06:22:54;7.78;;;4.50;;
55915;SDS011;41826;53.246;-6.670;2023-04-24T06:25:19;3.13;;;1.70;;
55915;SDS011;41826;53.246;-6.670;2023-04-24T06:27:45;5.03;;;2.00;;
55915;SDS011;41826;53.246;-6.670;2023-04-24T06:30:11;6.00;;;2.28;;
55915;SDS011;41826;53.246;-6.670;2023-04-24T06:32:36;4.65;;;2.03;;
55915;SDS011;41826;53.246;-6.670;2023-04-24T06:35:02;5.70;;;2.17;;
55915;SDS011;41826;53.246;-6.670;2023-04-24T06:37:28;2.42;;;1.50;;
55915;SDS011;41826;53.246;-6.670;2023-04-24T06:39:54;6.80;;;1.77;;
55915;SDS011;41826;53.246;-6.670;2023-04-24T06:42:19;4.28;;;2.20;;
55915;SDS011;41826;53.246;-6.670;2023-04-24T06:44:46;4.90;;;2.70;;
55915;SDS011;41826;53.246;-6.670;2023-04-24T06:47:12;4.95;;;1.60;;
55915;SDS011;41826;53.246;-6.670;2023-04-24T06:49:38;7.55;;;2.28;;
55915;SDS011;41826;53.246;-6.670;2023-04-24T06:52:05;5.75;;;2.03;;
55915;SDS011;41826;53.246;-6.670;2023-04-24T06:54:31;5.45;;;2.25;;
55915;SDS011;41826;53.246;-6.670;2023-04-24T06:56:57;5.50;;;2.03;;
55915;SDS011;41826;53.246;-6.670;2023-04-24T06:59:28;6.03;;;2.30;;
55915;SDS011;41826;53.246;-6.670;2023-04-24T07:01:53;9.50;;;2.53;;
55915;SDS011;41826;53.246;-6.670;2023-04-24T07:04:23;6.07;;;2.53;;
55915;SDS011;41826;53.246;-6.670;2023-04-24T07:06:49;10.60;;;2.75;;
55915;SDS011;41826;53.246;-6.670;2023-04-24T07:09:16;2.53;;;1.77;;
55915;SDS011;41826;53.246;-6.670;2023-04-24T07:11:46;2.67;;;1.02;;
55915;SDS011;41826;53.246;-6.670;2023-04-24T07:14:13;1.77;;;1.50;;
55915;SDS011;41826;53.246;-6.670;2023-04-24T07:16:38;4.32;;;1.92;;
55915;SDS011;41826;53.246;-6.670;2023-04-24T07:19:04;2.78;;;1.33;;
55915;SDS011;41826;53.246;-6.670;2023-04-24T07:21:30;4.43;;;1.30;;
55915;SDS011;41826;53.246;-6.670;2023-04-24T07:23:57;7.90;;;1.90;;
55915;SDS011;41826;53.246;-6.670;2023-04-24T07:26:23;0.70;;;0.70;;
55915;SDS011;41826;53.246;-6.670;2023-04-24T07:28:48;1.65;;;1.55;;
55915;SDS011;41826;53.246;-6.670;2023-04-24T07:31:15;2.33;;;0.85;;
55915;SDS011;41826;53.246;-6.670;2023-04-24T07:33:40;2.33;;;1.30;;
55915;SDS011;41826;53.246;-6.670;2023-04-24T07:36:06;2.30;;;0.93;;
55915;SDS011;41826;53.246;-6.670;2023-04-24T07:38:31;2.50;;;1.25;;
55915;SDS011;41826;53.246;-6.670;2023-04-24T07:40:57;1.48;;;1.25;;
55915;SDS011;41826;53.246;-6.670;2023-04-24T07:43:24;2.25;;;1.08;;
55915;SDS011;41826;53.246;-6.670;2023-04-24T07:45:50;3.33;;;1.45;;
55915;SDS011;41826;53.246;-6.670;2023-04-24T07:48:16;10.98;;;2.35;;
55915;SDS011;41826;53.246;-6.670;2023-04-24T07:50:42;2.60;;;1.58;;
55915;SDS011;41826;53.246;-6.670;2023-04-24T07:53:10;4.55;;;1.00;;
55915;SDS011;41826;53.246;-6.670;2023-04-24T07:55:36;5.20;;;1.60;;
55915;SDS011;41826;53.246;-6.670;2023-04-24T07:58:01;6.38;;;1.45;;
55915;SDS011;41826;53.246;-6.670;2023-04-24T08:00:27;5.18;;;1.80;;
55915;SDS011;41826;53.246;-6.670;2023-04-24T08:02:53;3.15;;;1.70;;
55915;SDS011;41826;53.246;-6.670;2023-04-24T08:05:18;4.32;;;1.90;;
55915;SDS011;41826;53.246;-6.670;2023-04-24T08:07:44;3.47;;;1.45;;
55915;SDS011;41826;53.246;-6.670;2023-04-24T08:10:11;4.88;;;1.88;;
55915;SDS011;41826;53.246;-6.670;2023-04-24T08:12:37;11.23;;;2.90;;
55915;SDS011;41826;53.246;-6.670;2023-04-24T08:15:03;4.13;;;2.35;;
55915;SDS011;41826;53.246;-6.670;2023-04-24T08:17:30;2.28;;;2.08;;
55915;SDS011;41826;53.246;-6.670;2023-04-24T08:19:55;2.88;;;1.30;;
55915;SDS011;41826;53.246;-6.670;2023-04-24T08:22:26;3.13;;;1.52;;
55915;SDS011;41826;53.246;-6.670;2023-04-24T08:24:52;2.70;;;1.63;;
55915;SDS011;41826;53.246;-6.670;2023-04-24T08:27:18;5.50;;;1.77;;
55915;SDS011;41826;53.246;-6.670;2023-04-24T08:29:43;2.67;;;0.98;;
55915;SDS011;41826;53.246;-6.670;2023-04-24T08:32:10;2.95;;;1.27;;
55915;SDS011;41826;53.246;-6.670;2023-04-24T08:34:36;4.65;;;1.17;;
55915;SDS011;41826;53.246;-6.670;2023-04-24T08:37:02;3.40;;;1.52;;
55915;SDS011;41826;53.246;-6.670;2023-04-24T08:39:27;8.93;;;2.58;;
55915;SDS011;41826;53.246;-6.670;2023-04-24T08:41:53;4.47;;;2.08;;
55915;SDS011;41826;53.246;-6.670;2023-04-24T08:44:18;1.35;;;1.20;;
55915;SDS011;41826;53.246;-6.670;2023-04-24T08:46:45;6.45;;;2.22;;
55915;SDS011;41826;53.246;-6.670;2023-04-24T08:49:13;5.88;;;1.73;;
55915;SDS011;41826;53.246;-6.670;2023-04-24T08:51:41;6.00;;;1.88;;
55915;SDS011;41826;53.246;-6.670;2023-04-24T08:54:07;4.90;;;1.40;;
55915;SDS011;41826;53.246;-6.670;2023-04-24T08:56:33;6.50;;;1.50;;
55915;SDS011;41826;53.246;-6.670;2023-04-24T08:58:59;7.07;;;2.65;;
55915;SDS011;41826;53.246;-6.670;2023-04-24T09:01:25;4.13;;;1.52;;
55915;SDS011;41826;53.246;-6.670;2023-04-24T09:03:52;7.22;;;1.73;;
55915;SDS011;41826;53.246;-6.670;2023-04-24T09:06:20;7.10;;;2.05;;
55915;SDS011;41826;53.246;-6.670;2023-04-24T09:08:47;8.38;;;2.22;;
55915;SDS011;41826;53.246;-6.670;2023-04-24T09:11:15;2.47;;;0.73;;
55915;SDS011;41826;53.246;-6.670;2023-04-24T09:13:40;3.70;;;1.50;;
55915;SDS011;41826;53.246;-6.670;2023-04-24T09:16:06;7.15;;;2.00;;
55915;SDS011;41826;53.246;-6.670;2023-04-24T09:18:32;5.38;;;1.50;;
55915;SDS011;41826;53.246;-6.670;2023-04-24T09:21:03;7.88;;;1.70;;
55915;SDS011;41826;53.246;-6.670;2023-04-24T09:23:31;4.68;;;1.90;;
55915;SDS011;41826;53.246;-6.670;2023-04-24T09:25:58;5.28;;;0.98;;
55915;SDS011;41826;53.246;-6.670;2023-04-24T09:28:35;3.75;;;1.58;;
55915;SDS011;41826;53.246;-6.670;2023-04-24T09:31:12;1.00;;;0.82;;
55915;SDS011;41826;53.246;-6.670;2023-04-24T09:33:59;6.43;;;1.90;;
55915;SDS011;41826;53.246;-6.670;2023-04-24T09:36:31;4.53;;;1.48;;
55915;SDS011;41826;53.246;-6.670;2023-04-24T09:39:21;5.55;;;2.20;;
55915;SDS011;41826;53.246;-6.670;2023-04-24T09:41:54;5.75;;;0.75;;
55915;SDS011;41826;53.246;-6.670;2023-04-24T09:44:24;1.73;;;1.15;;
55915;SDS011;41826;53.246;-6.670;2023-04-24T09:46:53;1.75;;;1.00;;
55915;SDS011;41826;53.246;-6.670;2023-04-24T09:49:21;3.45;;;1.00;;
55915;SDS011;41826;53.246;-6.670;2023-04-24T09:51:49;3.40;;;1.15;;
55915;SDS011;41826;53.246;-6.670;2023-04-24T09:54:15;1.92;;;1.05;;
55915;SDS011;41826;53.246;-6.670;2023-04-24T09:56:49;7.15;;;1.38;;
55915;SDS011;41826;53.246;-6.670;2023-04-24T09:59:16;3.70;;;1.88;;
55915;SDS011;41826;53.246;-6.670;2023-04-24T10:01:44;5.75;;;1.70;;
55915;SDS011;41826;53.246;-6.670;2023-04-24T10:04:16;3.25;;;1.50;;
55915;SDS011;41826;53.246;-6.670;2023-04-24T10:06:43;2.03;;;1.20;;
55915;SDS011;41826;53.246;-6.670;2023-04-24T10:09:09;2.63;;;1.30;;
55915;SDS011;41826;53.246;-6.670;2023-04-24T10:11:39;0.68;;;0.68;;
55915;SDS011;41826;53.246;-6.670;2023-04-24T10:14:07;2.72;;;1.35;;
55915;SDS011;41826;53.246;-6.670;2023-04-24T10:16:35;3.90;;;1.95;;
55915;SDS011;41826;53.246;-6.670;2023-04-24T10:19:02;2.25;;;1.17;;
55915;SDS011;41826;53.246;-6.670;2023-04-24T10:21:28;0.95;;;0.80;;
55915;SDS011;41826;53.246;-6.670;2023-04-24T10:23:54;9.25;;;5.93;;
55915;SDS011;41826;53.246;-6.670;2023-04-24T10:26:20;1.70;;;1.02;;
55915;SDS011;41826;53.246;-6.670;2023-04-24T10:28:47;6.75;;;2.25;;
55915;SDS011;41826;53.246;-6.670;2023-04-24T10:31:14;3.83;;;2.03;;
55915;SDS011;41826;53.246;-6.670;2023-04-24T10:33:43;10.40;;;2.30;;
55915;SDS011;41826;53.246;-6.670;2023-04-24T10:36:11;5.47;;;1.50;;
55915;SDS011;41826;53.246;-6.670;2023-04-24T10:38:39;2.17;;;1.08;;
55915;SDS011;41826;53.246;-6.670;2023-04-24T10:41:07;3.55;;;1.02;;
55915;SDS011;41826;53.246;-6.670;2023-04-24T10:43:41;4.55;;;1.90;;
55915;SDS011;41826;53.246;-6.670;2023-04-24T10:46:07;6.53;;;1.60;;
55915;SDS011;41826;53.246;-6.670;2023-04-24T10:48:35;12.15;;;2.38;;
55915;SDS011;41826;53.246;-6.670;2023-04-24T10:51:10;3.13;;;1.40;;
55915;SDS011;41826;53.246;-6.670;2023-04-24T10:53:36;6.35;;;2.55;;
55915;SDS011;41826;53.246;-6.670;2023-04-24T10:56:02;4.75;;;1.55;;
55915;SDS011;41826;53.246;-6.670;2023-04-24T10:58:36;6.05;;;1.70;;
55915;SDS011;41826;53.246;-6.670;2023-04-24T11:01:09;9.10;;;1.65;;
55915;SDS011;41826;53.246;-6.670;2023-04-24T11:03:54;4.93;;;1.92;;
55915;SDS011;41826;53.246;-6.670;2023-04-24T11:06:34;4.13;;;1.52;;
55915;SDS011;41826;53.246;-6.670;2023-04-24T11:09:10;3.30;;;1.08;;
55915;SDS011;41826;53.246;-6.670;2023-04-24T11:11:38;5.05;;;1.27;;
55915;SDS011;41826;53.246;-6.670;2023-04-24T11:14:10;6.50;;;1.13;;
55915;SDS011;41826;53.246;-6.670;2023-04-24T11:16:42;2.28;;;1.10;;
55915;SDS011;41826;53.246;-6.670;2023-04-24T11:19:26;7.25;;;1.88;;
55915;SDS011;41826;53.246;-6.670;2023-04-24T11:22:00;3.85;;;1.02;;
55915;SDS011;41826;53.246;-6.670;2023-04-24T11:24:39;8.27;;;1.48;;
55915;SDS011;41826;53.246;-6.670;2023-04-24T11:27:16;1.15;;;0.95;;
55915;SDS011;41826;53.246;-6.670;2023-04-24T11:29:46;2.22;;;1.30;;
55915;SDS011;41826;53.246;-6.670;2023-04-24T11:34:50;2.90;;;1.63;;
55915;SDS011;41826;53.246;-6.670;2023-04-24T11:37:17;0.98;;;0.90;;
55915;SDS011;41826;53.246;-6.670;2023-04-24T11:39:42;10.88;;;1.60;;
55915;SDS011;41826;53.246;-6.670;2023-04-24T11:42:13;8.18;;;1.67;;
55915;SDS011;41826;53.246;-6.670;2023-04-24T11:44:42;7.07;;;1.25;;
55915;SDS011;41826;53.246;-6.670;2023-04-24T11:47:08;4.35;;;1.42;;
55915;SDS011;41826;53.246;-6.670;2023-04-24T11:49:33;6.35;;;1.95;;
55915;SDS011;41826;53.246;-6.670;2023-04-24T11:52:01;6.70;;;1.13;;
55915;SDS011;41826;53.246;-6.670;2023-04-24T11:54:27;3.85;;;1.33;;
55915;SDS011;41826;53.246;-6.670;2023-04-24T11:56:53;2.30;;;0.90;;
55915;SDS011;41826;53.246;-6.670;2023-04-24T11:59:18;4.20;;;0.85;;
55915;SDS011;41826;53.246;-6.670;2023-04-24T12:01:47;4.20;;;1.23;;
55915;SDS011;41826;53.246;-6.670;2023-04-24T12:04:14;4.97;;;1.38;;
55915;SDS011;41826;53.246;-6.670;2023-04-24T12:06:58;2.25;;;0.90;;
55915;SDS011;41826;53.246;-6.670;2023-04-24T12:09:25;10.88;;;1.95;;
55915;SDS011;41826;53.246;-6.670;2023-04-24T12:11:54;6.03;;;1.45;;
55915;SDS011;41826;53.246;-6.670;2023-04-24T12:16:52;4.93;;;1.17;;
55915;SDS011;41826;53.246;-6.670;2023-04-24T12:19:21;6.07;;;1.40;;
55915;SDS011;41826;53.246;-6.670;2023-04-24T12:22:03;6.55;;;1.50;;
55915;SDS011;41826;53.246;-6.670;2023-04-24T12:26:57;1.85;;;1.15;;
55915;SDS011;41826;53.246;-6.670;2023-04-24T12:29:23;4.32;;;2.03;;
55915;SDS011;41826;53.246;-6.670;2023-04-24T12:31:53;8.93;;;1.40;;
55915;SDS011;41826;53.246;-6.670;2023-04-24T12:34:22;7.30;;;2.10;;
55915;SDS011;41826;53.246;-6.670;2023-04-24T12:36:49;9.00;;;1.98;;
55915;SDS011;41826;53.246;-6.670;2023-04-24T12:39:17;8.77;;;1.38;;
55915;SDS011;41826;53.246;-6.670;2023-04-24T12:41:56;4.90;;;1.65;;
55915;SDS011;41826;53.246;-6.670;2023-04-24T12:44:31;8.60;;;1.65;;
55915;SDS011;41826;53.246;-6.670;2023-04-24T12:47:01;7.72;;;1.30;;
55915;SDS011;41826;53.246;-6.670;2023-04-24T12:49:27;5.68;;;1.73;;
55915;SDS011;41826;53.246;-6.670;2023-04-24T12:51:55;3.40;;;1.35;;
55915;SDS011;41826;53.246;-6.670;2023-04-24T12:54:20;3.35;;;1.70;;
55915;SDS011;41826;53.246;-6.670;2023-04-24T12:56:46;6.35;;;1.92;;
55915;SDS011;41826;53.246;-6.670;2023-04-24T12:59:12;3.45;;;1.63;;
55915;SDS011;41826;53.246;-6.670;2023-04-24T13:01:37;12.85;;;2.22;;
55915;SDS011;41826;53.246;-6.670;2023-04-24T13:04:02;6.18;;;1.77;;
55915;SDS011;41826;53.246;-6.670;2023-04-24T13:06:30;4.95;;;1.58;;
55915;SDS011;41826;53.246;-6.670;2023-04-24T13:08:56;3.40;;;1.23;;
55915;SDS011;41826;53.246;-6.670;2023-04-24T13:11:22;14.18;;;1.27;;
55915;SDS011;41826;53.246;-6.670;2023-04-24T13:13:48;6.03;;;2.08;;
55915;SDS011;41826;53.246;-6.670;2023-04-24T13:16:14;4.35;;;1.60;;
55915;SDS011;41826;53.246;-6.670;2023-04-24T13:18:39;3.55;;;1.50;;
55915;SDS011;41826;53.246;-6.670;2023-04-24T13:21:04;9.35;;;2.05;;
55915;SDS011;41826;53.246;-6.670;2023-04-24T13:23:30;5.78;;;1.35;;
55915;SDS011;41826;53.246;-6.670;2023-04-24T13:25:55;7.70;;;1.33;;
55915;SDS011;41826;53.246;-6.670;2023-04-24T13:28:23;5.55;;;1.40;;
55915;SDS011;41826;53.246;-6.670;2023-04-24T13:30:49;4.20;;;1.80;;
55915;SDS011;41826;53.246;-6.670;2023-04-24T13:33:15;2.70;;;1.38;;
55915;SDS011;41826;53.246;-6.670;2023-04-24T13:35:40;3.58;;;1.45;;
55915;SDS011;41826;53.246;-6.670;2023-04-24T13:38:06;6.63;;;1.50;;
55915;SDS011;41826;53.246;-6.670;2023-04-24T13:40:33;2.22;;;1.00;;
55915;SDS011;41826;53.246;-6.670;2023-04-24T13:42:58;4.95;;;1.65;;
55915;SDS011;41826;53.246;-6.670;2023-04-24T13:45:24;9.98;;;2.00;;
55915;SDS011;41826;53.246;-6.670;2023-04-24T13:47:49;4.82;;;1.42;;
55915;SDS011;41826;53.246;-6.670;2023-04-24T13:50:18;3.95;;;1.17;;
55915;SDS011;41826;53.246;-6.670;2023-04-24T13:52:44;4.60;;;1.23;;
55915;SDS011;41826;53.246;-6.670;2023-04-24T13:55:11;9.32;;;1.35;;
55915;SDS011;41826;53.246;-6.670;2023-04-24T13:57:36;7.47;;;1.50;;
55915;SDS011;41826;53.246;-6.670;2023-04-24T14:00:02;3.13;;;1.60;;
55915;SDS011;41826;53.246;-6.670;2023-04-24T14:02:29;2.40;;;1.15;;
55915;SDS011;41826;53.246;-6.670;2023-04-24T14:04:55;8.18;;;1.70;;
55915;SDS011;41826;53.246;-6.670;2023-04-24T14:07:20;6.50;;;1.83;;
55915;SDS011;41826;53.246;-6.670;2023-04-24T14:09:46;4.75;;;1.77;;
55915;SDS011;41826;53.246;-6.670;2023-04-24T14:12:11;5.15;;;1.52;;
55915;SDS011;41826;53.246;-6.670;2023-04-24T14:14:39;4.65;;;1.55;;
55915;SDS011;41826;53.246;-6.670;2023-04-24T14:17:04;4.30;;;1.50;;
55915;SDS011;41826;53.246;-6.670;2023-04-24T14:19:30;3.60;;;1.50;;
55915;SDS011;41826;53.246;-6.670;2023-04-24T14:21:56;4.20;;;1.52;;
55915;SDS011;41826;53.246;-6.670;2023-04-24T14:24:23;6.32;;;2.35;;
55915;SDS011;41826;53.246;-6.670;2023-04-24T14:26:48;1.65;;;0.70;;
55915;SDS011;41826;53.246;-6.670;2023-04-24T14:29:14;5.82;;;1.00;;
55915;SDS011;41826;53.246;-6.670;2023-04-24T14:31:40;5.40;;;1.40;;
55915;SDS011;41826;53.246;-6.670;2023-04-24T14:34:06;5.95;;;1.67;;
55915;SDS011;41826;53.246;-6.670;2023-04-24T14:36:31;5.93;;;1.90;;
55915;SDS011;41826;53.246;-6.670;2023-04-24T14:38:57;3.38;;;1.50;;